Terminal Aerodrome Forecast
Issued by NWS

Home | Current Version | Previous Version | Text Only | Print | Product List | Glossary On
Versions: 1 2 3 4 5 6 7 8 9 10 11 12 13 14 15 16
221
FTUS41 KPBZ 081120
TAFFKL
TAF
KFKL 081120Z 0812/0912 15006KT P6SM SCT150
     FM081800 14005KT P6SM -RA OVC035
     FM082000 16005KT 3SM -RASN OVC025
     FM082200 20005KT 3SM -SN BR OVC010
     FM090300 22004KT 5SM -SHSN OVC004
      AMD LTD TO CLD VIS AND WIND=

USA.gov is the U.S. government's official web portal to all federal, state and local government web resources and services.